This is the latest recevied weather packets stored in our database for station/object K4FDS. If no packets are shown the sender has not sent any weather packets the latest 10 day(s).
| Time | Temp. | Humidity | Pressure | Rain* | Wind** | Luminosity | Snow |
|---|---|---|---|---|---|---|---|
| 1777907965 | 16.11° C | 47% | 1010.7 hPa | 0 mm | 0.89 m/s, 240° | - | - |
| 1777906165 | 16.11° C | 47% | 1010.7 hPa | 0 mm | 0.89 m/s, 240° | - | - |
| 1777904365 | 16.11° C | 47% | 1010.7 hPa | 0 mm | 0.89 m/s, 240° | - | - |
| 1777902565 | 15° C | 51% | 1010.6 hPa | 0 mm | 0.89 m/s, 262° | - | - |
| 1777900765 | 14.44° C | 54% | 1011 hPa | 0 mm | 0.45 m/s, 271° | - | - |
| 1777898965 | 12.22° C | 65% | 1011.3 hPa | 0 mm | 0 m/s | - | - |
| 1777897165 | 8.89° C | 74% | 1012.1 hPa | 0 mm | 0.45 m/s, 31° | - | - |
| 1777895365 | 7.78° C | 79% | 1012.5 hPa | 0 mm | 0 m/s | - | - |
| 1777893565 | 7.78° C | 78% | 1012.7 hPa | 0 mm | 0 m/s | - | - |
| 1777891765 | 7.78° C | 79% | 1012.6 hPa | 0 mm | 0 m/s | - | - |
| 1777889965 | 8.33° C | 73% | 1012.2 hPa | 0 mm | 0 m/s | - | - |
| 1777888164 | 8.33° C | 73% | 1012.2 hPa | 0 mm | 0 m/s | - | - |
| 1777886364 | 8.33° C | 73% | 1012.1 hPa | 0 mm | 0 m/s | - | - |
| 1777884564 | 7.78° C | 74% | 1012.4 hPa | 0 mm | 0 m/s | - | - |
| 1777882764 | 7.78° C | 74% | 1012.4 hPa | 0 mm | 0 m/s | - | - |
| 1777880964 | 8.33° C | 73% | 1012.6 hPa | 0 mm | 0 m/s | - | - |
| 1777879164 | 8.33° C | 73% | 1012.6 hPa | 0 mm | 0 m/s | - | - |
| 1777877364 | 8.33° C | 71% | 1012.7 hPa | 0 mm | 0 m/s | - | - |
| 1777875564 | 7.78° C | 72% | 1012.8 hPa | 0 mm | 0 m/s | - | - |
| 1777873764 | 7.78° C | 72% | 1012.8 hPa | 0 mm | 0 m/s | - | - |
| 1777871964 | 7.22° C | 72% | 1012.5 hPa | 0 mm | 0 m/s | - | - |
| 1777870164 | 7.22° C | 72% | 1012.5 hPa | 0 mm | 0 m/s | - | - |
| 1777868364 | 11.11° C | 50% | 1011.3 hPa | 0 mm | 0 m/s | - | - |
| 1777866564 | 11.11° C | 50% | 1011.3 hPa | 0 mm | 0 m/s | - | - |
| 1777864764 | 11.11° C | 50% | 1011.3 hPa | 0 mm | 0 m/s | - | - |
* Rain latest hour (hover to see other rain measurements)
** Current wind speed in m/s (hover to see current wind gust speed)